Pagina principale
METAR-TAF:

METAR-TAF

Aeroporti :

Redstone Arsenal, Alabama, Stati Uniti

latitudine: 34-40-43N, longitudine: 086-41-05W, altezza: 209 m

Osservazione

Il bollettino è stato emesso 1 ora e 15 minuti fa, alle 19:58 UTC
Vento 6 kt da sud/sud-ovest
Temperature 11°C
Umidità 43%
Pressione 1019 hPa
Visibilità: 16.1 km
Cielo sereno

METAR: KHUA 121958Z AUTO 20006KT 10SM CLR 11/M01 A3010 RMK AO2 SLP197 T01101015

Ora: 15:13 (21:13 UTC)


TAF: mancante

Osservazioni e previsioni meteorologiche di più di 4000 aeroporti (messaggi METAR e TAF).

Le stazioni disponibili sono rappresentate dai dischi gialli e rossi sulla carta.

Puntare il mouse per vedere il nome della stazione.

Clicca sopra per visualizzare le osservazioni e previsioni meteorologiche.

Per cambiare la mappa : fare clic sui pulsanti verdi con una croce nera per ingrandire, il pulsante verde con un trattino per diminuire, o sulla freccia verde per le mappe adiacenti.


METAR-TAF: